sensor_id;sensor_type;location;lat;lon;timestamp;P1;durP1;ratioP1;P2;durP2;ratioP2
61785;SDS011;47692;53.714;11.372;2023-06-22T00:01:00;2.70;;;1.70;;
61785;SDS011;47692;53.714;11.372;2023-06-22T00:03:26;2.30;;;1.42;;
61785;SDS011;47692;53.714;11.372;2023-06-22T00:05:51;4.63;;;2.10;;
61785;SDS011;47692;53.714;11.372;2023-06-22T00:08:18;2.90;;;2.08;;
61785;SDS011;47692;53.714;11.372;2023-06-22T00:10:44;3.75;;;2.10;;
61785;SDS011;47692;53.714;11.372;2023-06-22T00:13:11;5.22;;;2.30;;
61785;SDS011;47692;53.714;11.372;2023-06-22T00:15:37;2.85;;;2.10;;
61785;SDS011;47692;53.714;11.372;2023-06-22T00:18:07;3.00;;;2.08;;
61785;SDS011;47692;53.714;11.372;2023-06-22T00:20:33;4.63;;;2.20;;
61785;SDS011;47692;53.714;11.372;2023-06-22T00:23:02;4.45;;;2.10;;
61785;SDS011;47692;53.714;11.372;2023-06-22T00:25:33;3.42;;;1.88;;
61785;SDS011;47692;53.714;11.372;2023-06-22T00:28:08;3.88;;;2.45;;
61785;SDS011;47692;53.714;11.372;2023-06-22T00:30:33;2.95;;;2.42;;
61785;SDS011;47692;53.714;11.372;2023-06-22T00:32:59;3.47;;;2.40;;
61785;SDS011;47692;53.714;11.372;2023-06-22T00:35:25;3.35;;;2.38;;
61785;SDS011;47692;53.714;11.372;2023-06-22T00:37:55;3.97;;;3.20;;
61785;SDS011;47692;53.714;11.372;2023-06-22T00:40:26;4.95;;;2.42;;
61785;SDS011;47692;53.714;11.372;2023-06-22T00:42:52;3.47;;;2.30;;
61785;SDS011;47692;53.714;11.372;2023-06-22T00:45:17;2.80;;;2.10;;
61785;SDS011;47692;53.714;11.372;2023-06-22T00:47:42;2.70;;;1.70;;
61785;SDS011;47692;53.714;11.372;2023-06-22T00:50:08;2.78;;;1.90;;
61785;SDS011;47692;53.714;11.372;2023-06-22T00:52:39;2.20;;;1.60;;
61785;SDS011;47692;53.714;11.372;2023-06-22T00:55:08;3.00;;;1.77;;
61785;SDS011;47692;53.714;11.372;2023-06-22T00:57:34;2.72;;;2.00;;
61785;SDS011;47692;53.714;11.372;2023-06-22T01:00:02;2.85;;;1.80;;
61785;SDS011;47692;53.714;11.372;2023-06-22T01:02:31;3.88;;;2.30;;
61785;SDS011;47692;53.714;11.372;2023-06-22T01:04:56;2.75;;;1.90;;
61785;SDS011;47692;53.714;11.372;2023-06-22T01:07:27;3.75;;;2.50;;
61785;SDS011;47692;53.714;11.372;2023-06-22T01:10:00;4.50;;;2.83;;
61785;SDS011;47692;53.714;11.372;2023-06-22T01:12:32;2.80;;;2.08;;
61785;SDS011;47692;53.714;11.372;2023-06-22T01:17:46;3.22;;;2.10;;
61785;SDS011;47692;53.714;11.372;2023-06-22T01:20:14;3.03;;;2.05;;
61785;SDS011;47692;53.714;11.372;2023-06-22T01:22:58;4.63;;;2.03;;
61785;SDS011;47692;53.714;11.372;2023-06-22T01:26:18;3.58;;;2.20;;
61785;SDS011;47692;53.714;11.372;2023-06-22T01:28:34;2.88;;;2.25;;
61785;SDS011;47692;53.714;11.372;2023-06-22T01:31:07;2.50;;;2.00;;
61785;SDS011;47692;53.714;11.372;2023-06-22T01:33:34;2.78;;;1.90;;
61785;SDS011;47692;53.714;11.372;2023-06-22T01:36:02;2.67;;;1.90;;
61785;SDS011;47692;53.714;11.372;2023-06-22T01:38:29;3.05;;;2.03;;
61785;SDS011;47692;53.714;11.372;2023-06-22T01:40:56;3.60;;;2.40;;
61785;SDS011;47692;53.714;11.372;2023-06-22T01:43:22;4.38;;;2.13;;
61785;SDS011;47692;53.714;11.372;2023-06-22T01:45:50;3.50;;;2.10;;
61785;SDS011;47692;53.714;11.372;2023-06-22T01:48:16;2.70;;;1.80;;
61785;SDS011;47692;53.714;11.372;2023-06-22T01:50:42;3.13;;;2.00;;
61785;SDS011;47692;53.714;11.372;2023-06-22T01:53:08;4.53;;;2.75;;
61785;SDS011;47692;53.714;11.372;2023-06-22T01:55:33;2.85;;;2.17;;
61785;SDS011;47692;53.714;11.372;2023-06-22T01:57:59;3.35;;;2.30;;
61785;SDS011;47692;53.714;11.372;2023-06-22T02:00:24;4.05;;;2.70;;
61785;SDS011;47692;53.714;11.372;2023-06-22T02:03:03;6.32;;;2.65;;
61785;SDS011;47692;53.714;11.372;2023-06-22T02:05:36;3.90;;;2.80;;
61785;SDS011;47692;53.714;11.372;2023-06-22T02:08:08;3.88;;;2.72;;
61785;SDS011;47692;53.714;11.372;2023-06-22T02:10:36;3.00;;;2.17;;
61785;SDS011;47692;53.714;11.372;2023-06-22T02:13:04;3.45;;;2.35;;
61785;SDS011;47692;53.714;11.372;2023-06-22T02:15:32;3.20;;;2.42;;
61785;SDS011;47692;53.714;11.372;2023-06-22T02:17:57;4.35;;;2.70;;
61785;SDS011;47692;53.714;11.372;2023-06-22T02:20:23;5.18;;;2.95;;
61785;SDS011;47692;53.714;11.372;2023-06-22T02:22:49;5.45;;;2.90;;
61785;SDS011;47692;53.714;11.372;2023-06-22T02:25:15;3.88;;;2.70;;
61785;SDS011;47692;53.714;11.372;2023-06-22T02:27:40;5.57;;;2.88;;
61785;SDS011;47692;53.714;11.372;2023-06-22T02:30:07;3.97;;;2.65;;
61785;SDS011;47692;53.714;11.372;2023-06-22T02:32:34;4.32;;;2.15;;
61785;SDS011;47692;53.714;11.372;2023-06-22T02:34:59;4.07;;;2.40;;
61785;SDS011;47692;53.714;11.372;2023-06-22T02:37:25;4.80;;;2.70;;
61785;SDS011;47692;53.714;11.372;2023-06-22T02:39:50;3.70;;;2.83;;
61785;SDS011;47692;53.714;11.372;2023-06-22T02:42:15;4.35;;;2.90;;
61785;SDS011;47692;53.714;11.372;2023-06-22T02:44:45;4.35;;;2.90;;
61785;SDS011;47692;53.714;11.372;2023-06-22T02:47:10;7.90;;;3.17;;
61785;SDS011;47692;53.714;11.372;2023-06-22T02:49:36;4.40;;;2.83;;
61785;SDS011;47692;53.714;11.372;2023-06-22T02:52:01;4.50;;;2.92;;
61785;SDS011;47692;53.714;11.372;2023-06-22T02:54:26;4.45;;;3.22;;
61785;SDS011;47692;53.714;11.372;2023-06-22T02:56:52;3.47;;;2.47;;
61785;SDS011;47692;53.714;11.372;2023-06-22T02:59:17;5.38;;;3.08;;
61785;SDS011;47692;53.714;11.372;2023-06-22T03:01:46;5.57;;;3.22;;
61785;SDS011;47692;53.714;11.372;2023-06-22T03:04:12;5.30;;;3.47;;
61785;SDS011;47692;53.714;11.372;2023-06-22T03:06:38;3.90;;;3.10;;
61785;SDS011;47692;53.714;11.372;2023-06-22T03:09:05;5.65;;;4.18;;
61785;SDS011;47692;53.714;11.372;2023-06-22T03:11:32;6.50;;;4.10;;
61785;SDS011;47692;53.714;11.372;2023-06-22T03:13:58;4.88;;;3.75;;
61785;SDS011;47692;53.714;11.372;2023-06-22T03:16:24;6.78;;;4.22;;
61785;SDS011;47692;53.714;11.372;2023-06-22T03:18:49;5.75;;;3.90;;
61785;SDS011;47692;53.714;11.372;2023-06-22T03:21:15;5.80;;;3.55;;
61785;SDS011;47692;53.714;11.372;2023-06-22T03:23:41;7.78;;;4.80;;
61785;SDS011;47692;53.714;11.372;2023-06-22T03:26:08;8.35;;;5.38;;
61785;SDS011;47692;53.714;11.372;2023-06-22T03:28:34;11.27;;;5.78;;
61785;SDS011;47692;53.714;11.372;2023-06-22T03:30:59;7.00;;;4.35;;
61785;SDS011;47692;53.714;11.372;2023-06-22T03:33:25;7.50;;;4.47;;
61785;SDS011;47692;53.714;11.372;2023-06-22T03:35:50;4.75;;;3.63;;
61785;SDS011;47692;53.714;11.372;2023-06-22T03:38:16;4.95;;;3.30;;
61785;SDS011;47692;53.714;11.372;2023-06-22T03:40:42;5.00;;;2.85;;
61785;SDS011;47692;53.714;11.372;2023-06-22T03:43:07;6.32;;;4.15;;
61785;SDS011;47692;53.714;11.372;2023-06-22T03:45:32;5.25;;;3.22;;
61785;SDS011;47692;53.714;11.372;2023-06-22T03:47:58;4.25;;;2.90;;
61785;SDS011;47692;53.714;11.372;2023-06-22T03:50:23;7.20;;;3.63;;
61785;SDS011;47692;53.714;11.372;2023-06-22T03:52:48;8.40;;;3.85;;
61785;SDS011;47692;53.714;11.372;2023-06-22T03:55:14;7.07;;;4.20;;
61785;SDS011;47692;53.714;11.372;2023-06-22T03:57:39;6.05;;;3.35;;
61785;SDS011;47692;53.714;11.372;2023-06-22T04:00:04;6.35;;;4.05;;
61785;SDS011;47692;53.714;11.372;2023-06-22T04:02:31;4.63;;;2.70;;
61785;SDS011;47692;53.714;11.372;2023-06-22T04:04:56;4.20;;;3.28;;
61785;SDS011;47692;53.714;11.372;2023-06-22T04:07:21;5.05;;;3.85;;
61785;SDS011;47692;53.714;11.372;2023-06-22T04:09:47;4.80;;;3.63;;
61785;SDS011;47692;53.714;11.372;2023-06-22T04:12:12;5.57;;;3.63;;
61785;SDS011;47692;53.714;11.372;2023-06-22T04:14:38;5.50;;;3.90;;
61785;SDS011;47692;53.714;11.372;2023-06-22T04:17:03;5.47;;;3.42;;
61785;SDS011;47692;53.714;11.372;2023-06-22T04:19:29;6.97;;;4.82;;
61785;SDS011;47692;53.714;11.372;2023-06-22T04:21:54;6.43;;;3.97;;
61785;SDS011;47692;53.714;11.372;2023-06-22T04:24:20;7.30;;;5.25;;
61785;SDS011;47692;53.714;11.372;2023-06-22T04:26:45;5.93;;;4.00;;
61785;SDS011;47692;53.714;11.372;2023-06-22T04:29:12;7.10;;;3.92;;
61785;SDS011;47692;53.714;11.372;2023-06-22T04:31:38;4.75;;;3.42;;
61785;SDS011;47692;53.714;11.372;2023-06-22T04:34:04;4.93;;;3.20;;
61785;SDS011;47692;53.714;11.372;2023-06-22T04:36:32;5.18;;;3.40;;
61785;SDS011;47692;53.714;11.372;2023-06-22T04:39:08;4.40;;;3.25;;
61785;SDS011;47692;53.714;11.372;2023-06-22T04:41:37;4.20;;;3.03;;
61785;SDS011;47692;53.714;11.372;2023-06-22T04:44:10;4.70;;;3.50;;
61785;SDS011;47692;53.714;11.372;2023-06-22T04:46:50;5.63;;;3.60;;
61785;SDS011;47692;53.714;11.372;2023-06-22T04:49:19;6.22;;;4.30;;
61785;SDS011;47692;53.714;11.372;2023-06-22T04:51:46;7.07;;;4.05;;
61785;SDS011;47692;53.714;11.372;2023-06-22T04:54:12;5.93;;;3.90;;
61785;SDS011;47692;53.714;11.372;2023-06-22T04:56:38;5.35;;;3.55;;
61785;SDS011;47692;53.714;11.372;2023-06-22T04:59:05;5.78;;;3.97;;
61785;SDS011;47692;53.714;11.372;2023-06-22T05:01:31;6.55;;;4.35;;
61785;SDS011;47692;53.714;11.372;2023-06-22T05:03:57;5.32;;;4.00;;
61785;SDS011;47692;53.714;11.372;2023-06-22T05:06:23;4.47;;;3.15;;
61785;SDS011;47692;53.714;11.372;2023-06-22T05:08:54;4.03;;;3.08;;
61785;SDS011;47692;53.714;11.372;2023-06-22T05:11:26;5.85;;;3.30;;
61785;SDS011;47692;53.714;11.372;2023-06-22T05:13:52;5.20;;;3.50;;
61785;SDS011;47692;53.714;11.372;2023-06-22T05:16:18;9.88;;;3.90;;
61785;SDS011;47692;53.714;11.372;2023-06-22T05:18:51;4.65;;;3.53;;
61785;SDS011;47692;53.714;11.372;2023-06-22T05:21:24;8.57;;;4.38;;
61785;SDS011;47692;53.714;11.372;2023-06-22T05:23:51;6.32;;;4.30;;
61785;SDS011;47692;53.714;11.372;2023-06-22T05:26:17;7.05;;;4.47;;
61785;SDS011;47692;53.714;11.372;2023-06-22T05:28:43;6.65;;;4.47;;
61785;SDS011;47692;53.714;11.372;2023-06-22T05:31:12;4.88;;;3.55;;
61785;SDS011;47692;53.714;11.372;2023-06-22T05:33:41;5.28;;;4.25;;
61785;SDS011;47692;53.714;11.372;2023-06-22T05:36:06;7.28;;;4.32;;
61785;SDS011;47692;53.714;11.372;2023-06-22T05:38:32;6.53;;;4.68;;
61785;SDS011;47692;53.714;11.372;2023-06-22T05:40:57;5.57;;;3.92;;
61785;SDS011;47692;53.714;11.372;2023-06-22T05:43:23;7.50;;;4.45;;
61785;SDS011;47692;53.714;11.372;2023-06-22T05:45:48;6.43;;;4.25;;
61785;SDS011;47692;53.714;11.372;2023-06-22T05:48:13;5.72;;;3.70;;
61785;SDS011;47692;53.714;11.372;2023-06-22T05:50:39;9.32;;;4.65;;
61785;SDS011;47692;53.714;11.372;2023-06-22T05:53:04;9.70;;;5.13;;
61785;SDS011;47692;53.714;11.372;2023-06-22T05:55:31;8.50;;;5.70;;
61785;SDS011;47692;53.714;11.372;2023-06-22T05:57:57;7.38;;;4.68;;
61785;SDS011;47692;53.714;11.372;2023-06-22T06:00:22;8.32;;;5.25;;
61785;SDS011;47692;53.714;11.372;2023-06-22T06:02:51;7.40;;;5.25;;
61785;SDS011;47692;53.714;11.372;2023-06-22T06:05:16;6.22;;;4.60;;
61785;SDS011;47692;53.714;11.372;2023-06-22T06:07:42;8.68;;;5.47;;
61785;SDS011;47692;53.714;11.372;2023-06-22T06:10:08;10.40;;;5.25;;
61785;SDS011;47692;53.714;11.372;2023-06-22T06:12:34;8.85;;;5.22;;
61785;SDS011;47692;53.714;11.372;2023-06-22T06:15:00;7.50;;;4.88;;
61785;SDS011;47692;53.714;11.372;2023-06-22T06:17:26;7.30;;;5.32;;
61785;SDS011;47692;53.714;11.372;2023-06-22T06:19:51;9.25;;;4.90;;
61785;SDS011;47692;53.714;11.372;2023-06-22T06:22:17;7.68;;;4.80;;
61785;SDS011;47692;53.714;11.372;2023-06-22T06:24:44;5.57;;;3.92;;
61785;SDS011;47692;53.714;11.372;2023-06-22T06:27:09;6.25;;;3.10;;
61785;SDS011;47692;53.714;11.372;2023-06-22T06:29:34;5.43;;;3.05;;
61785;SDS011;47692;53.714;11.372;2023-06-22T06:32:00;5.97;;;3.22;;
61785;SDS011;47692;53.714;11.372;2023-06-22T06:34:25;4.57;;;3.45;;
61785;SDS011;47692;53.714;11.372;2023-06-22T06:36:50;5.15;;;3.10;;
61785;SDS011;47692;53.714;11.372;2023-06-22T06:39:16;4.68;;;3.40;;
61785;SDS011;47692;53.714;11.372;2023-06-22T06:41:41;5.18;;;3.53;;
61785;SDS011;47692;53.714;11.372;2023-06-22T06:44:07;5.43;;;3.40;;
61785;SDS011;47692;53.714;11.372;2023-06-22T06:46:32;5.80;;;3.40;;
61785;SDS011;47692;53.714;11.372;2023-06-22T06:48:58;4.90;;;3.00;;
61785;SDS011;47692;53.714;11.372;2023-06-22T06:51:23;5.18;;;3.10;;
61785;SDS011;47692;53.714;11.372;2023-06-22T06:53:49;5.03;;;2.90;;
61785;SDS011;47692;53.714;11.372;2023-06-22T06:56:14;5.97;;;2.90;;
61785;SDS011;47692;53.714;11.372;2023-06-22T06:58:42;6.80;;;3.30;;
61785;SDS011;47692;53.714;11.372;2023-06-22T07:01:10;6.18;;;3.55;;
61785;SDS011;47692;53.714;11.372;2023-06-22T07:03:35;5.63;;;3.33;;
61785;SDS011;47692;53.714;11.372;2023-06-22T07:06:00;5.70;;;3.40;;
61785;SDS011;47692;53.714;11.372;2023-06-22T07:08:26;6.15;;;3.53;;
61785;SDS011;47692;53.714;11.372;2023-06-22T07:10:52;5.28;;;3.97;;
61785;SDS011;47692;53.714;11.372;2023-06-22T07:13:17;7.25;;;4.18;;
61785;SDS011;47692;53.714;11.372;2023-06-22T07:15:42;4.95;;;3.33;;
61785;SDS011;47692;53.714;11.372;2023-06-22T07:18:08;4.47;;;3.00;;
61785;SDS011;47692;53.714;11.372;2023-06-22T07:20:33;4.70;;;2.78;;
61785;SDS011;47692;53.714;11.372;2023-06-22T07:22:59;4.90;;;2.95;;
61785;SDS011;47692;53.714;11.372;2023-06-22T07:25:24;4.55;;;2.63;;
61785;SDS011;47692;53.714;11.372;2023-06-22T07:28:00;6.28;;;3.00;;
61785;SDS011;47692;53.714;11.372;2023-06-22T07:30:27;4.88;;;2.72;;
61785;SDS011;47692;53.714;11.372;2023-06-22T07:32:53;5.63;;;2.90;;
61785;SDS011;47692;53.714;11.372;2023-06-22T07:35:18;4.00;;;2.88;;
61785;SDS011;47692;53.714;11.372;2023-06-22T07:37:44;5.55;;;2.90;;
61785;SDS011;47692;53.714;11.372;2023-06-22T07:40:09;5.78;;;2.65;;
61785;SDS011;47692;53.714;11.372;2023-06-22T07:42:35;4.88;;;2.92;;
61785;SDS011;47692;53.714;11.372;2023-06-22T07:45:03;5.90;;;2.80;;
61785;SDS011;47692;53.714;11.372;2023-06-22T07:47:29;5.90;;;2.45;;
61785;SDS011;47692;53.714;11.372;2023-06-22T07:49:55;3.55;;;2.38;;
61785;SDS011;47692;53.714;11.372;2023-06-22T07:52:23;5.40;;;2.97;;
61785;SDS011;47692;53.714;11.372;2023-06-22T07:54:49;4.45;;;2.70;;
61785;SDS011;47692;53.714;11.372;2023-06-22T07:57:15;5.55;;;2.90;;
61785;SDS011;47692;53.714;11.372;2023-06-22T07:59:40;5.30;;;2.75;;
61785;SDS011;47692;53.714;11.372;2023-06-22T08:02:05;4.75;;;2.40;;
61785;SDS011;47692;53.714;11.372;2023-06-22T08:04:30;5.72;;;2.70;;
61785;SDS011;47692;53.714;11.372;2023-06-22T08:06:58;4.65;;;2.20;;
61785;SDS011;47692;53.714;11.372;2023-06-22T08:09:24;3.85;;;2.50;;
61785;SDS011;47692;53.714;11.372;2023-06-22T08:11:49;5.95;;;2.58;;
61785;SDS011;47692;53.714;11.372;2023-06-22T08:14:15;5.68;;;2.97;;
61785;SDS011;47692;53.714;11.372;2023-06-22T08:16:41;4.55;;;2.70;;
61785;SDS011;47692;53.714;11.372;2023-06-22T08:19:06;4.15;;;2.40;;
61785;SDS011;47692;53.714;11.372;2023-06-22T08:21:32;5.20;;;2.20;;
61785;SDS011;47692;53.714;11.372;2023-06-22T08:23:57;3.38;;;1.95;;
61785;SDS011;47692;53.714;11.372;2023-06-22T08:26:22;5.32;;;2.47;;
61785;SDS011;47692;53.714;11.372;2023-06-22T08:28:48;5.20;;;2.50;;
61785;SDS011;47692;53.714;11.372;2023-06-22T08:31:13;4.25;;;2.42;;
61785;SDS011;47692;53.714;11.372;2023-06-22T08:33:39;3.50;;;2.05;;
61785;SDS011;47692;53.714;11.372;2023-06-22T08:36:04;5.65;;;2.22;;
61785;SDS011;47692;53.714;11.372;2023-06-22T08:38:31;4.50;;;2.17;;
61785;SDS011;47692;53.714;11.372;2023-06-22T08:40:56;2.65;;;1.95;;
61785;SDS011;47692;53.714;11.372;2023-06-22T08:43:22;3.40;;;1.95;;
61785;SDS011;47692;53.714;11.372;2023-06-22T08:45:47;4.13;;;2.47;;
61785;SDS011;47692;53.714;11.372;2023-06-22T08:48:12;3.75;;;2.42;;
61785;SDS011;47692;53.714;11.372;2023-06-22T08:50:37;4.75;;;2.20;;
61785;SDS011;47692;53.714;11.372;2023-06-22T08:53:05;3.60;;;2.00;;
61785;SDS011;47692;53.714;11.372;2023-06-22T08:55:30;3.63;;;2.40;;
61785;SDS011;47692;53.714;11.372;2023-06-22T08:57:56;3.67;;;2.40;;
61785;SDS011;47692;53.714;11.372;2023-06-22T09:00:21;2.70;;;2.15;;
61785;SDS011;47692;53.714;11.372;2023-06-22T09:02:46;4.30;;;2.17;;
61785;SDS011;47692;53.714;11.372;2023-06-22T09:05:13;3.17;;;2.15;;
61785;SDS011;47692;53.714;11.372;2023-06-22T09:07:38;3.67;;;2.15;;
61785;SDS011;47692;53.714;11.372;2023-06-22T09:10:04;5.13;;;2.17;;
61785;SDS011;47692;53.714;11.372;2023-06-22T09:12:30;3.35;;;2.00;;
61785;SDS011;47692;53.714;11.372;2023-06-22T09:14:57;3.58;;;2.20;;
61785;SDS011;47692;53.714;11.372;2023-06-22T09:17:25;3.47;;;2.08;;
61785;SDS011;47692;53.714;11.372;2023-06-22T09:19:50;5.60;;;2.03;;
61785;SDS011;47692;53.714;11.372;2023-06-22T09:22:16;2.90;;;1.90;;
61785;SDS011;47692;53.714;11.372;2023-06-22T09:24:41;5.68;;;2.00;;
61785;SDS011;47692;53.714;11.372;2023-06-22T09:27:06;3.42;;;1.83;;
61785;SDS011;47692;53.714;11.372;2023-06-22T09:29:32;4.70;;;2.38;;
61785;SDS011;47692;53.714;11.372;2023-06-22T09:31:58;3.40;;;1.75;;
61785;SDS011;47692;53.714;11.372;2023-06-22T09:34:27;2.83;;;1.80;;
61785;SDS011;47692;53.714;11.372;2023-06-22T09:36:52;3.90;;;1.80;;
61785;SDS011;47692;53.714;11.372;2023-06-22T09:39:18;20.90;;;2.60;;
61785;SDS011;47692;53.714;11.372;2023-06-22T09:41:43;5.25;;;1.98;;
61785;SDS011;47692;53.714;11.372;2023-06-22T09:44:09;3.45;;;1.98;;
61785;SDS011;47692;53.714;11.372;2023-06-22T09:46:34;3.28;;;2.20;;
61785;SDS011;47692;53.714;11.372;2023-06-22T09:48:59;4.20;;;2.33;;
61785;SDS011;47692;53.714;11.372;2023-06-22T09:51:25;4.38;;;2.22;;
61785;SDS011;47692;53.714;11.372;2023-06-22T09:53:50;4.32;;;2.60;;
61785;SDS011;47692;53.714;11.372;2023-06-22T09:56:17;5.00;;;2.47;;
61785;SDS011;47692;53.714;11.372;2023-06-22T09:58:42;6.47;;;2.53;;
61785;SDS011;47692;53.714;11.372;2023-06-22T10:01:08;4.65;;;2.28;;
61785;SDS011;47692;53.714;11.372;2023-06-22T10:03:33;3.78;;;2.33;;
61785;SDS011;47692;53.714;11.372;2023-06-22T10:05:59;3.08;;;2.10;;
61785;SDS011;47692;53.714;11.372;2023-06-22T10:08:24;5.50;;;3.10;;
61785;SDS011;47692;53.714;11.372;2023-06-22T10:10:49;5.10;;;2.80;;
61785;SDS011;47692;53.714;11.372;2023-06-22T10:13:15;10.48;;;3.30;;
61785;SDS011;47692;53.714;11.372;2023-06-22T10:15:40;7.07;;;3.08;;
61785;SDS011;47692;53.714;11.372;2023-06-22T10:18:06;3.90;;;2.30;;
61785;SDS011;47692;53.714;11.372;2023-06-22T10:20:32;5.55;;;2.60;;
61785;SDS011;47692;53.714;11.372;2023-06-22T10:22:57;4.28;;;3.10;;
61785;SDS011;47692;53.714;11.372;2023-06-22T10:25:23;5.40;;;2.80;;
61785;SDS011;47692;53.714;11.372;2023-06-22T10:27:48;4.95;;;2.78;;
61785;SDS011;47692;53.714;11.372;2023-06-22T10:30:13;6.68;;;3.20;;
61785;SDS011;47692;53.714;11.372;2023-06-22T10:32:39;5.53;;;2.53;;
61785;SDS011;47692;53.714;11.372;2023-06-22T10:35:05;5.13;;;2.80;;
61785;SDS011;47692;53.714;11.372;2023-06-22T10:37:31;5.80;;;2.83;;
61785;SDS011;47692;53.714;11.372;2023-06-22T10:39:57;5.15;;;2.70;;
61785;SDS011;47692;53.714;11.372;2023-06-22T10:42:22;4.82;;;2.75;;
61785;SDS011;47692;53.714;11.372;2023-06-22T10:44:48;4.85;;;2.78;;
61785;SDS011;47692;53.714;11.372;2023-06-22T10:47:13;4.07;;;2.90;;
61785;SDS011;47692;53.714;11.372;2023-06-22T10:49:39;5.20;;;2.90;;
61785;SDS011;47692;53.714;11.372;2023-06-22T10:52:08;4.63;;;2.83;;
61785;SDS011;47692;53.714;11.372;2023-06-22T10:54:34;5.07;;;3.05;;
61785;SDS011;47692;53.714;11.372;2023-06-22T10:57:01;10.63;;;3.30;;
61785;SDS011;47692;53.714;11.372;2023-06-22T10:59:27;6.03;;;3.78;;
61785;SDS011;47692;53.714;11.372;2023-06-22T11:01:53;6.05;;;3.65;;
61785;SDS011;47692;53.714;11.372;2023-06-22T11:04:20;6.00;;;3.25;;
61785;SDS011;47692;53.714;11.372;2023-06-22T11:06:45;4.93;;;2.95;;
61785;SDS011;47692;53.714;11.372;2023-06-22T11:09:10;4.10;;;2.92;;
61785;SDS011;47692;53.714;11.372;2023-06-22T11:11:35;11.02;;;3.38;;
61785;SDS011;47692;53.714;11.372;2023-06-22T11:14:01;4.95;;;3.17;;
61785;SDS011;47692;53.714;11.372;2023-06-22T11:16:26;6.78;;;3.00;;
61785;SDS011;47692;53.714;11.372;2023-06-22T11:18:52;6.45;;;3.58;;
61785;SDS011;47692;53.714;11.372;2023-06-22T11:21:17;5.05;;;3.58;;
61785;SDS011;47692;53.714;11.372;2023-06-22T11:23:43;7.68;;;3.72;;
61785;SDS011;47692;53.714;11.372;2023-06-22T11:26:08;5.20;;;3.00;;
61785;SDS011;47692;53.714;11.372;2023-06-22T11:28:33;4.88;;;2.97;;
61785;SDS011;47692;53.714;11.372;2023-06-22T11:30:58;5.43;;;3.63;;
61785;SDS011;47692;53.714;11.372;2023-06-22T11:33:24;5.90;;;3.33;;
61785;SDS011;47692;53.714;11.372;2023-06-22T11:35:49;4.63;;;3.22;;
61785;SDS011;47692;53.714;11.372;2023-06-22T11:38:15;6.57;;;4.00;;
61785;SDS011;47692;53.714;11.372;2023-06-22T11:40:40;3.85;;;2.63;;
61785;SDS011;47692;53.714;11.372;2023-06-22T11:43:05;8.25;;;3.50;;
61785;SDS011;47692;53.714;11.372;2023-06-22T11:45:31;4.13;;;2.70;;
61785;SDS011;47692;53.714;11.372;2023-06-22T11:47:56;5.55;;;3.33;;
61785;SDS011;47692;53.714;11.372;2023-06-22T11:50:21;4.30;;;2.92;;
61785;SDS011;47692;53.714;11.372;2023-06-22T11:52:47;7.35;;;4.00;;
61785;SDS011;47692;53.714;11.372;2023-06-22T11:55:12;5.63;;;3.13;;
61785;SDS011;47692;53.714;11.372;2023-06-22T11:57:38;5.00;;;3.30;;
61785;SDS011;47692;53.714;11.372;2023-06-22T12:00:16;4.55;;;2.92;;
61785;SDS011;47692;53.714;11.372;2023-06-22T12:02:43;6.95;;;3.30;;
61785;SDS011;47692;53.714;11.372;2023-06-22T12:05:09;7.40;;;3.80;;
61785;SDS011;47692;53.714;11.372;2023-06-22T12:07:35;5.18;;;3.33;;
61785;SDS011;47692;53.714;11.372;2023-06-22T12:10:01;5.10;;;3.38;;
61785;SDS011;47692;53.714;11.372;2023-06-22T12:12:27;5.05;;;3.10;;
61785;SDS011;47692;53.714;11.372;2023-06-22T12:14:52;4.35;;;3.00;;
61785;SDS011;47692;53.714;11.372;2023-06-22T12:17:17;5.30;;;3.08;;
61785;SDS011;47692;53.714;11.372;2023-06-22T12:19:43;6.95;;;4.13;;
61785;SDS011;47692;53.714;11.372;2023-06-22T12:22:08;5.13;;;3.33;;
61785;SDS011;47692;53.714;11.372;2023-06-22T12:24:33;5.40;;;3.72;;
61785;SDS011;47692;53.714;11.372;2023-06-22T12:26:59;5.88;;;3.45;;
61785;SDS011;47692;53.714;11.372;2023-06-22T12:29:24;5.22;;;3.40;;
61785;SDS011;47692;53.714;11.372;2023-06-22T12:31:49;4.28;;;3.33;;
61785;SDS011;47692;53.714;11.372;2023-06-22T12:34:14;4.75;;;3.08;;
61785;SDS011;47692;53.714;11.372;2023-06-22T12:36:40;4.97;;;3.78;;
61785;SDS011;47692;53.714;11.372;2023-06-22T12:39:05;5.28;;;3.28;;
61785;SDS011;47692;53.714;11.372;2023-06-22T12:41:30;5.22;;;3.67;;
61785;SDS011;47692;53.714;11.372;2023-06-22T12:43:56;5.28;;;3.40;;
61785;SDS011;47692;53.714;11.372;2023-06-22T12:46:21;6.40;;;4.05;;
61785;SDS011;47692;53.714;11.372;2023-06-22T12:48:46;4.22;;;3.40;;
61785;SDS011;47692;53.714;11.372;2023-06-22T12:51:11;5.10;;;3.97;;
61785;SDS011;47692;53.714;11.372;2023-06-22T12:53:37;5.78;;;4.15;;
61785;SDS011;47692;53.714;11.372;2023-06-22T12:56:02;5.97;;;3.92;;
61785;SDS011;47692;53.714;11.372;2023-06-22T12:58:27;6.78;;;4.13;;
61785;SDS011;47692;53.714;11.372;2023-06-22T13:00:53;4.90;;;3.75;;
61785;SDS011;47692;53.714;11.372;2023-06-22T13:03:18;5.20;;;3.90;;
61785;SDS011;47692;53.714;11.372;2023-06-22T13:05:44;4.97;;;4.07;;
61785;SDS011;47692;53.714;11.372;2023-06-22T13:08:09;5.65;;;4.53;;
61785;SDS011;47692;53.714;11.372;2023-06-22T13:10:35;6.63;;;3.85;;
61785;SDS011;47692;53.714;11.372;2023-06-22T13:13:01;4.55;;;3.95;;
61785;SDS011;47692;53.714;11.372;2023-06-22T13:15:27;5.05;;;3.70;;
61785;SDS011;47692;53.714;11.372;2023-06-22T13:17:53;5.22;;;3.67;;
61785;SDS011;47692;53.714;11.372;2023-06-22T13:20:19;4.30;;;3.15;;
61785;SDS011;47692;53.714;11.372;2023-06-22T13:22:44;4.63;;;3.20;;
61785;SDS011;47692;53.714;11.372;2023-06-22T13:25:09;5.22;;;3.80;;
61785;SDS011;47692;53.714;11.372;2023-06-22T13:27:37;6.40;;;4.22;;
61785;SDS011;47692;53.714;11.372;2023-06-22T13:30:03;6.00;;;4.38;;
61785;SDS011;47692;53.714;11.372;2023-06-22T13:32:29;5.45;;;4.43;;
61785;SDS011;47692;53.714;11.372;2023-06-22T13:34:54;6.10;;;4.43;;
61785;SDS011;47692;53.714;11.372;2023-06-22T13:37:20;5.38;;;4.38;;
61785;SDS011;47692;53.714;11.372;2023-06-22T13:39:45;5.35;;;4.57;;
61785;SDS011;47692;53.714;11.372;2023-06-22T13:42:10;5.15;;;4.45;;
61785;SDS011;47692;53.714;11.372;2023-06-22T13:44:36;6.57;;;4.63;;
61785;SDS011;47692;53.714;11.372;2023-06-22T13:47:01;5.13;;;3.17;;
61785;SDS011;47692;53.714;11.372;2023-06-22T13:49:26;4.78;;;2.95;;
61785;SDS011;47692;53.714;11.372;2023-06-22T13:51:52;5.40;;;2.90;;
61785;SDS011;47692;53.714;11.372;2023-06-22T13:54:17;4.93;;;3.17;;
61785;SDS011;47692;53.714;11.372;2023-06-22T13:56:42;5.72;;;2.97;;
61785;SDS011;47692;53.714;11.372;2023-06-22T13:59:08;3.97;;;3.28;;
61785;SDS011;47692;53.714;11.372;2023-06-22T14:01:34;6.55;;;3.08;;
61785;SDS011;47692;53.714;11.372;2023-06-22T14:04:00;5.53;;;3.08;;
61785;SDS011;47692;53.714;11.372;2023-06-22T14:06:27;5.93;;;2.95;;
61785;SDS011;47692;53.714;11.372;2023-06-22T14:08:52;5.35;;;3.13;;
61785;SDS011;47692;53.714;11.372;2023-06-22T14:11:18;4.47;;;2.75;;
61785;SDS011;47692;53.714;11.372;2023-06-22T14:13:43;5.75;;;2.85;;
61785;SDS011;47692;53.714;11.372;2023-06-22T14:16:08;4.25;;;3.13;;
61785;SDS011;47692;53.714;11.372;2023-06-22T14:18:34;4.75;;;2.75;;
61785;SDS011;47692;53.714;11.372;2023-06-22T14:20:59;3.90;;;2.40;;
61785;SDS011;47692;53.714;11.372;2023-06-22T14:23:24;7.30;;;2.90;;
61785;SDS011;47692;53.714;11.372;2023-06-22T14:25:50;4.75;;;2.60;;
61785;SDS011;47692;53.714;11.372;2023-06-22T14:28:15;5.82;;;2.90;;
61785;SDS011;47692;53.714;11.372;2023-06-22T14:30:41;5.10;;;2.38;;